sensor_id;sensor_type;location;lat;lon;timestamp;P1;durP1;ratioP1;P2;durP2;ratioP2
62679;SDS011;68213;40.528;44.712;2023-02-28T00:00:07;16.40;;;9.30;;
62679;SDS011;68213;40.528;44.712;2023-02-28T00:01:12;19.58;;;8.82;;
62679;SDS011;68213;40.528;44.712;2023-02-28T00:02:13;19.35;;;9.85;;
62679;SDS011;68213;40.528;44.712;2023-02-28T00:03:14;13.73;;;9.27;;
62679;SDS011;68213;40.528;44.712;2023-02-28T00:04:15;19.65;;;10.25;;
62679;SDS011;68213;40.528;44.712;2023-02-28T00:05:17;24.67;;;11.80;;
62679;SDS011;68213;40.528;44.712;2023-02-28T00:06:19;21.58;;;10.73;;
62679;SDS011;68213;40.528;44.712;2023-02-28T00:07:22;21.10;;;11.55;;
62679;SDS011;68213;40.528;44.712;2023-02-28T00:08:23;21.48;;;12.32;;
62679;SDS011;68213;40.528;44.712;2023-02-28T00:09:23;21.70;;;11.63;;
62679;SDS011;68213;40.528;44.712;2023-02-28T00:10:25;21.33;;;11.70;;
62679;SDS011;68213;40.528;44.712;2023-02-28T00:11:27;20.23;;;11.80;;
62679;SDS011;68213;40.528;44.712;2023-02-28T00:12:28;21.65;;;11.32;;
62679;SDS011;68213;40.528;44.712;2023-02-28T00:13:31;18.33;;;10.90;;
62679;SDS011;68213;40.528;44.712;2023-02-28T00:14:34;20.45;;;10.75;;
62679;SDS011;68213;40.528;44.712;2023-02-28T00:15:35;23.50;;;11.43;;
62679;SDS011;68213;40.528;44.712;2023-02-28T00:16:37;21.90;;;11.38;;
62679;SDS011;68213;40.528;44.712;2023-02-28T00:17:38;26.75;;;11.80;;
62679;SDS011;68213;40.528;44.712;2023-02-28T00:18:39;25.75;;;13.00;;
62679;SDS011;68213;40.528;44.712;2023-02-28T00:19:39;24.08;;;12.80;;
62679;SDS011;68213;40.528;44.712;2023-02-28T00:20:40;26.35;;;12.88;;
62679;SDS011;68213;40.528;44.712;2023-02-28T00:21:41;24.25;;;12.15;;
62679;SDS011;68213;40.528;44.712;2023-02-28T00:22:46;28.55;;;13.98;;
62679;SDS011;68213;40.528;44.712;2023-02-28T00:23:48;27.83;;;12.60;;
62679;SDS011;68213;40.528;44.712;2023-02-28T00:24:49;25.70;;;14.73;;
62679;SDS011;68213;40.528;44.712;2023-02-28T00:25:50;22.80;;;11.27;;
62679;SDS011;68213;40.528;44.712;2023-02-28T00:26:51;20.08;;;12.18;;
62679;SDS011;68213;40.528;44.712;2023-02-28T00:27:51;26.52;;;12.45;;
62679;SDS011;68213;40.528;44.712;2023-02-28T00:28:52;24.20;;;11.40;;
62679;SDS011;68213;40.528;44.712;2023-02-28T00:29:53;18.98;;;10.88;;
62679;SDS011;68213;40.528;44.712;2023-02-28T00:30:54;22.05;;;11.90;;
62679;SDS011;68213;40.528;44.712;2023-02-28T00:31:54;21.02;;;10.95;;
62679;SDS011;68213;40.528;44.712;2023-02-28T00:32:55;19.55;;;8.75;;
62679;SDS011;68213;40.528;44.712;2023-02-28T00:33:56;15.30;;;8.35;;
62679;SDS011;68213;40.528;44.712;2023-02-28T00:34:56;15.02;;;8.40;;
62679;SDS011;68213;40.528;44.712;2023-02-28T00:36:15;14.68;;;8.88;;
62679;SDS011;68213;40.528;44.712;2023-02-28T00:37:16;17.67;;;8.90;;
62679;SDS011;68213;40.528;44.712;2023-02-28T00:38:16;19.35;;;9.38;;
62679;SDS011;68213;40.528;44.712;2023-02-28T00:39:17;22.40;;;10.18;;
62679;SDS011;68213;40.528;44.712;2023-02-28T00:40:18;18.80;;;9.75;;
62679;SDS011;68213;40.528;44.712;2023-02-28T00:41:19;18.80;;;10.57;;
62679;SDS011;68213;40.528;44.712;2023-02-28T00:42:19;22.35;;;10.95;;
62679;SDS011;68213;40.528;44.712;2023-02-28T00:43:20;20.25;;;10.68;;
62679;SDS011;68213;40.528;44.712;2023-02-28T00:44:21;18.48;;;9.75;;
62679;SDS011;68213;40.528;44.712;2023-02-28T00:45:22;20.55;;;10.77;;
62679;SDS011;68213;40.528;44.712;2023-02-28T00:46:22;20.65;;;10.82;;
62679;SDS011;68213;40.528;44.712;2023-02-28T00:47:23;20.20;;;10.52;;
62679;SDS011;68213;40.528;44.712;2023-02-28T00:48:23;24.95;;;11.60;;
62679;SDS011;68213;40.528;44.712;2023-02-28T00:49:24;21.15;;;11.13;;
62679;SDS011;68213;40.528;44.712;2023-02-28T00:50:26;19.88;;;10.63;;
62679;SDS011;68213;40.528;44.712;2023-02-28T00:51:27;19.55;;;11.07;;
62679;SDS011;68213;40.528;44.712;2023-02-28T00:52:27;18.70;;;10.52;;
62679;SDS011;68213;40.528;44.712;2023-02-28T00:53:28;23.02;;;11.25;;
62679;SDS011;68213;40.528;44.712;2023-02-28T00:54:29;24.92;;;11.18;;
62679;SDS011;68213;40.528;44.712;2023-02-28T00:55:30;19.55;;;10.77;;
62679;SDS011;68213;40.528;44.712;2023-02-28T00:56:30;20.38;;;10.45;;
62679;SDS011;68213;40.528;44.712;2023-02-28T00:57:31;20.05;;;11.02;;
62679;SDS011;68213;40.528;44.712;2023-02-28T00:58:31;20.48;;;10.98;;
62679;SDS011;68213;40.528;44.712;2023-02-28T00:59:32;20.40;;;10.68;;
62679;SDS011;68213;40.528;44.712;2023-02-28T01:00:33;20.95;;;10.95;;
62679;SDS011;68213;40.528;44.712;2023-02-28T01:01:33;18.45;;;11.00;;
62679;SDS011;68213;40.528;44.712;2023-02-28T01:02:34;21.15;;;11.20;;
62679;SDS011;68213;40.528;44.712;2023-02-28T01:03:35;19.95;;;10.98;;
62679;SDS011;68213;40.528;44.712;2023-02-28T01:04:35;21.38;;;11.18;;
62679;SDS011;68213;40.528;44.712;2023-02-28T01:05:36;23.33;;;11.52;;
62679;SDS011;68213;40.528;44.712;2023-02-28T01:06:37;17.98;;;10.60;;
62679;SDS011;68213;40.528;44.712;2023-02-28T01:07:38;23.20;;;11.48;;
62679;SDS011;68213;40.528;44.712;2023-02-28T01:08:38;25.13;;;10.80;;
62679;SDS011;68213;40.528;44.712;2023-02-28T01:09:39;23.40;;;10.77;;
62679;SDS011;68213;40.528;44.712;2023-02-28T01:10:40;20.17;;;10.50;;
62679;SDS011;68213;40.528;44.712;2023-02-28T01:11:41;21.38;;;10.45;;
62679;SDS011;68213;40.528;44.712;2023-02-28T01:12:44;20.10;;;9.70;;
62679;SDS011;68213;40.528;44.712;2023-02-28T01:13:45;24.70;;;10.77;;
62679;SDS011;68213;40.528;44.712;2023-02-28T01:14:46;22.38;;;11.50;;
62679;SDS011;68213;40.528;44.712;2023-02-28T01:15:50;18.77;;;9.82;;
62679;SDS011;68213;40.528;44.712;2023-02-28T01:16:53;20.30;;;10.65;;
62679;SDS011;68213;40.528;44.712;2023-02-28T01:17:53;19.35;;;9.50;;
62679;SDS011;68213;40.528;44.712;2023-02-28T01:18:54;16.65;;;9.38;;
62679;SDS011;68213;40.528;44.712;2023-02-28T01:19:55;19.42;;;9.65;;
62679;SDS011;68213;40.528;44.712;2023-02-28T01:20:56;23.58;;;10.98;;
62679;SDS011;68213;40.528;44.712;2023-02-28T01:21:56;19.27;;;11.50;;
62679;SDS011;68213;40.528;44.712;2023-02-28T01:22:57;21.02;;;10.63;;
62679;SDS011;68213;40.528;44.712;2023-02-28T01:23:58;20.42;;;9.93;;
62679;SDS011;68213;40.528;44.712;2023-02-28T01:24:58;20.00;;;9.93;;
62679;SDS011;68213;40.528;44.712;2023-02-28T01:26:09;24.02;;;9.70;;
62679;SDS011;68213;40.528;44.712;2023-02-28T01:27:13;18.15;;;9.55;;
62679;SDS011;68213;40.528;44.712;2023-02-28T01:28:13;20.05;;;10.38;;
62679;SDS011;68213;40.528;44.712;2023-02-28T01:29:14;17.90;;;10.13;;
62679;SDS011;68213;40.528;44.712;2023-02-28T01:30:15;21.48;;;11.00;;
62679;SDS011;68213;40.528;44.712;2023-02-28T01:31:16;18.83;;;10.20;;
62679;SDS011;68213;40.528;44.712;2023-02-28T01:32:18;21.80;;;10.65;;
62679;SDS011;68213;40.528;44.712;2023-02-28T01:33:18;22.70;;;11.38;;
62679;SDS011;68213;40.528;44.712;2023-02-28T01:34:19;21.00;;;10.40;;
62679;SDS011;68213;40.528;44.712;2023-02-28T01:35:20;18.95;;;10.48;;
62679;SDS011;68213;40.528;44.712;2023-02-28T01:36:21;21.05;;;10.45;;
62679;SDS011;68213;40.528;44.712;2023-02-28T01:37:23;23.92;;;10.48;;
62679;SDS011;68213;40.528;44.712;2023-02-28T01:38:24;19.65;;;9.68;;
62679;SDS011;68213;40.528;44.712;2023-02-28T01:39:25;19.13;;;10.55;;
62679;SDS011;68213;40.528;44.712;2023-02-28T01:40:26;27.52;;;13.75;;
62679;SDS011;68213;40.528;44.712;2023-02-28T01:41:29;20.98;;;10.82;;
62679;SDS011;68213;40.528;44.712;2023-02-28T01:42:31;22.60;;;12.13;;
62679;SDS011;68213;40.528;44.712;2023-02-28T01:46:03;18.27;;;10.45;;
62679;SDS011;68213;40.528;44.712;2023-02-28T01:47:04;21.10;;;10.85;;
62679;SDS011;68213;40.528;44.712;2023-02-28T01:48:05;22.80;;;10.80;;
62679;SDS011;68213;40.528;44.712;2023-02-28T01:49:11;21.00;;;11.50;;
62679;SDS011;68213;40.528;44.712;2023-02-28T01:50:19;20.48;;;10.70;;
62679;SDS011;68213;40.528;44.712;2023-02-28T01:51:56;20.23;;;11.52;;
62679;SDS011;68213;40.528;44.712;2023-02-28T01:52:56;21.75;;;10.75;;
62679;SDS011;68213;40.528;44.712;2023-02-28T01:54:04;20.40;;;11.20;;
62679;SDS011;68213;40.528;44.712;2023-02-28T01:55:13;21.38;;;11.65;;
62679;SDS011;68213;40.528;44.712;2023-02-28T01:56:17;22.83;;;10.65;;
62679;SDS011;68213;40.528;44.712;2023-02-28T01:57:31;15.52;;;8.82;;
62679;SDS011;68213;40.528;44.712;2023-02-28T01:58:37;19.17;;;9.02;;
62679;SDS011;68213;40.528;44.712;2023-02-28T01:59:40;23.13;;;10.73;;
62679;SDS011;68213;40.528;44.712;2023-02-28T02:01:05;24.02;;;9.48;;
62679;SDS011;68213;40.528;44.712;2023-02-28T02:02:05;20.27;;;10.50;;
62679;SDS011;68213;40.528;44.712;2023-02-28T02:03:07;17.88;;;9.68;;
62679;SDS011;68213;40.528;44.712;2023-02-28T02:04:10;15.52;;;8.45;;
62679;SDS011;68213;40.528;44.712;2023-02-28T02:05:29;18.30;;;9.23;;
62679;SDS011;68213;40.528;44.712;2023-02-28T02:06:40;15.52;;;9.20;;
62679;SDS011;68213;40.528;44.712;2023-02-28T02:07:44;18.10;;;10.20;;
62679;SDS011;68213;40.528;44.712;2023-02-28T02:08:47;20.40;;;10.40;;
62679;SDS011;68213;40.528;44.712;2023-02-28T02:09:47;21.25;;;9.30;;
62679;SDS011;68213;40.528;44.712;2023-02-28T02:10:49;21.27;;;9.70;;
62679;SDS011;68213;40.528;44.712;2023-02-28T02:11:54;22.52;;;9.77;;
62679;SDS011;68213;40.528;44.712;2023-02-28T02:15:12;18.85;;;9.80;;
62679;SDS011;68213;40.528;44.712;2023-02-28T02:20:27;18.98;;;10.68;;
62679;SDS011;68213;40.528;44.712;2023-02-28T02:33:06;23.20;;;11.45;;
62679;SDS011;68213;40.528;44.712;2023-02-28T02:37:07;26.35;;;11.85;;
62679;SDS011;68213;40.528;44.712;2023-02-28T02:41:17;19.85;;;10.85;;
62679;SDS011;68213;40.528;44.712;2023-02-28T02:42:32;22.10;;;9.85;;
62679;SDS011;68213;40.528;44.712;2023-02-28T02:44:15;18.77;;;9.85;;
62679;SDS011;68213;40.528;44.712;2023-02-28T02:45:31;20.70;;;10.50;;
62679;SDS011;68213;40.528;44.712;2023-02-28T02:46:46;20.20;;;10.88;;
62679;SDS011;68213;40.528;44.712;2023-02-28T02:47:48;26.52;;;11.55;;
62679;SDS011;68213;40.528;44.712;2023-02-28T02:48:53;23.63;;;11.57;;
62679;SDS011;68213;40.528;44.712;2023-02-28T02:49:57;21.05;;;10.98;;
62679;SDS011;68213;40.528;44.712;2023-02-28T02:51:10;23.33;;;11.77;;
62679;SDS011;68213;40.528;44.712;2023-02-28T02:52:15;22.85;;;12.07;;
62679;SDS011;68213;40.528;44.712;2023-02-28T02:53:22;24.25;;;12.85;;
62679;SDS011;68213;40.528;44.712;2023-02-28T02:54:31;27.27;;;12.43;;
62679;SDS011;68213;40.528;44.712;2023-02-28T02:55:37;23.77;;;13.27;;
62679;SDS011;68213;40.528;44.712;2023-02-28T02:56:42;30.02;;;15.55;;
62679;SDS011;68213;40.528;44.712;2023-02-28T02:57:49;26.73;;;13.38;;
62679;SDS011;68213;40.528;44.712;2023-02-28T02:58:54;31.45;;;14.90;;
62679;SDS011;68213;40.528;44.712;2023-02-28T02:59:59;31.00;;;14.75;;
62679;SDS011;68213;40.528;44.712;2023-02-28T03:01:05;28.30;;;13.45;;
62679;SDS011;68213;40.528;44.712;2023-02-28T03:02:08;29.30;;;14.50;;
62679;SDS011;68213;40.528;44.712;2023-02-28T03:03:12;25.70;;;13.45;;
62679;SDS011;68213;40.528;44.712;2023-02-28T03:04:18;25.08;;;13.68;;
62679;SDS011;68213;40.528;44.712;2023-02-28T03:05:23;29.48;;;13.25;;
62679;SDS011;68213;40.528;44.712;2023-02-28T03:06:27;34.53;;;14.88;;
62679;SDS011;68213;40.528;44.712;2023-02-28T03:07:27;27.75;;;14.20;;
62679;SDS011;68213;40.528;44.712;2023-02-28T03:08:29;27.73;;;13.75;;
62679;SDS011;68213;40.528;44.712;2023-02-28T03:09:34;24.88;;;13.95;;
62679;SDS011;68213;40.528;44.712;2023-02-28T03:10:44;30.00;;;15.05;;
62679;SDS011;68213;40.528;44.712;2023-02-28T03:11:48;32.70;;;15.98;;
62679;SDS011;68213;40.528;44.712;2023-02-28T03:12:52;28.25;;;14.73;;
62679;SDS011;68213;40.528;44.712;2023-02-28T03:21:38;33.05;;;14.23;;
62679;SDS011;68213;40.528;44.712;2023-02-28T03:22:58;26.27;;;14.52;;
62679;SDS011;68213;40.528;44.712;2023-02-28T03:27:03;26.55;;;13.45;;
62679;SDS011;68213;40.528;44.712;2023-02-28T03:28:15;26.35;;;13.38;;
62679;SDS011;68213;40.528;44.712;2023-02-28T03:29:20;25.75;;;13.23;;
62679;SDS011;68213;40.528;44.712;2023-02-28T03:31:36;29.90;;;14.50;;
62679;SDS011;68213;40.528;44.712;2023-02-28T03:32:43;25.60;;;13.60;;
62679;SDS011;68213;40.528;44.712;2023-02-28T03:34:07;38.75;;;15.02;;
62679;SDS011;68213;40.528;44.712;2023-02-28T03:35:21;28.23;;;13.73;;
62679;SDS011;68213;40.528;44.712;2023-02-28T03:36:26;30.85;;;14.40;;
62679;SDS011;68213;40.528;44.712;2023-02-28T03:37:30;25.30;;;13.73;;
62679;SDS011;68213;40.528;44.712;2023-02-28T03:38:46;31.90;;;15.40;;
62679;SDS011;68213;40.528;44.712;2023-02-28T03:40:00;31.25;;;15.25;;
62679;SDS011;68213;40.528;44.712;2023-02-28T03:41:19;30.52;;;14.30;;
62679;SDS011;68213;40.528;44.712;2023-02-28T03:42:29;31.33;;;15.30;;
62679;SDS011;68213;40.528;44.712;2023-02-28T03:43:38;25.85;;;13.38;;
62679;SDS011;68213;40.528;44.712;2023-02-28T03:44:49;32.78;;;15.13;;
62679;SDS011;68213;40.528;44.712;2023-02-28T03:45:55;26.10;;;14.30;;
62679;SDS011;68213;40.528;44.712;2023-02-28T03:47:03;27.52;;;14.63;;
62679;SDS011;68213;40.528;44.712;2023-02-28T03:49:18;26.20;;;14.40;;
62679;SDS011;68213;40.528;44.712;2023-02-28T03:50:26;27.70;;;14.13;;
62679;SDS011;68213;40.528;44.712;2023-02-28T03:51:32;30.95;;;14.80;;
62679;SDS011;68213;40.528;44.712;2023-02-28T03:52:37;27.90;;;14.07;;
62679;SDS011;68213;40.528;44.712;2023-02-28T03:53:46;23.85;;;13.20;;
62679;SDS011;68213;40.528;44.712;2023-02-28T03:54:54;27.40;;;15.75;;
62679;SDS011;68213;40.528;44.712;2023-02-28T03:57:20;28.33;;;14.30;;
62679;SDS011;68213;40.528;44.712;2023-02-28T03:59:46;27.55;;;14.25;;
62679;SDS011;68213;40.528;44.712;2023-02-28T04:00:51;32.35;;;15.25;;
62679;SDS011;68213;40.528;44.712;2023-02-28T04:01:58;28.42;;;13.85;;
62679;SDS011;68213;40.528;44.712;2023-02-28T04:02:59;29.05;;;14.45;;
62679;SDS011;68213;40.528;44.712;2023-02-28T04:04:00;27.77;;;15.48;;
62679;SDS011;68213;40.528;44.712;2023-02-28T04:05:04;36.88;;;15.15;;
62679;SDS011;68213;40.528;44.712;2023-02-28T04:06:06;27.63;;;14.57;;
62679;SDS011;68213;40.528;44.712;2023-02-28T04:07:08;29.05;;;14.65;;
62679;SDS011;68213;40.528;44.712;2023-02-28T04:08:12;28.95;;;14.38;;
62679;SDS011;68213;40.528;44.712;2023-02-28T04:09:15;28.67;;;14.93;;
62679;SDS011;68213;40.528;44.712;2023-02-28T04:10:19;27.98;;;14.63;;
62679;SDS011;68213;40.528;44.712;2023-02-28T04:11:32;33.92;;;16.13;;
62679;SDS011;68213;40.528;44.712;2023-02-28T04:12:35;29.45;;;14.73;;
62679;SDS011;68213;40.528;44.712;2023-02-28T04:13:36;29.50;;;16.00;;
62679;SDS011;68213;40.528;44.712;2023-02-28T04:14:37;29.58;;;15.82;;
62679;SDS011;68213;40.528;44.712;2023-02-28T04:15:37;35.00;;;16.50;;
62679;SDS011;68213;40.528;44.712;2023-02-28T04:16:39;30.98;;;15.20;;
62679;SDS011;68213;40.528;44.712;2023-02-28T04:17:41;37.30;;;16.08;;
62679;SDS011;68213;40.528;44.712;2023-02-28T04:18:42;31.25;;;16.00;;
62679;SDS011;68213;40.528;44.712;2023-02-28T04:19:45;26.10;;;15.02;;
62679;SDS011;68213;40.528;44.712;2023-02-28T04:20:46;35.40;;;15.82;;
62679;SDS011;68213;40.528;44.712;2023-02-28T04:21:48;34.40;;;16.27;;
62679;SDS011;68213;40.528;44.712;2023-02-28T04:22:52;28.10;;;14.88;;
62679;SDS011;68213;40.528;44.712;2023-02-28T04:23:53;31.20;;;15.77;;
62679;SDS011;68213;40.528;44.712;2023-02-28T04:24:54;32.60;;;15.13;;
62679;SDS011;68213;40.528;44.712;2023-02-28T04:25:55;30.60;;;15.73;;
62679;SDS011;68213;40.528;44.712;2023-02-28T04:26:56;33.78;;;16.10;;
62679;SDS011;68213;40.528;44.712;2023-02-28T04:28:00;33.80;;;17.48;;
62679;SDS011;68213;40.528;44.712;2023-02-28T04:29:04;35.72;;;17.50;;
62679;SDS011;68213;40.528;44.712;2023-02-28T04:30:06;32.75;;;18.27;;
62679;SDS011;68213;40.528;44.712;2023-02-28T04:31:07;35.33;;;18.05;;
62679;SDS011;68213;40.528;44.712;2023-02-28T04:32:10;42.45;;;18.38;;
62679;SDS011;68213;40.528;44.712;2023-02-28T04:33:11;41.88;;;19.65;;
62679;SDS011;68213;40.528;44.712;2023-02-28T04:34:12;35.22;;;18.73;;
62679;SDS011;68213;40.528;44.712;2023-02-28T04:35:12;34.60;;;18.02;;
62679;SDS011;68213;40.528;44.712;2023-02-28T04:36:13;39.70;;;21.08;;
62679;SDS011;68213;40.528;44.712;2023-02-28T04:37:14;37.85;;;20.20;;
62679;SDS011;68213;40.528;44.712;2023-02-28T04:38:15;33.58;;;19.02;;
62679;SDS011;68213;40.528;44.712;2023-02-28T04:39:18;34.45;;;19.10;;
62679;SDS011;68213;40.528;44.712;2023-02-28T04:40:18;38.90;;;19.08;;
62679;SDS011;68213;40.528;44.712;2023-02-28T04:41:19;42.03;;;19.67;;
62679;SDS011;68213;40.528;44.712;2023-02-28T04:42:20;34.83;;;19.50;;
62679;SDS011;68213;40.528;44.712;2023-02-28T04:43:21;41.95;;;19.65;;
62679;SDS011;68213;40.528;44.712;2023-02-28T04:44:22;39.30;;;18.65;;
62679;SDS011;68213;40.528;44.712;2023-02-28T04:45:23;40.17;;;20.63;;
62679;SDS011;68213;40.528;44.712;2023-02-28T04:46:23;46.10;;;20.58;;
62679;SDS011;68213;40.528;44.712;2023-02-28T04:47:24;47.33;;;22.05;;
62679;SDS011;68213;40.528;44.712;2023-02-28T04:48:25;43.38;;;21.67;;
62679;SDS011;68213;40.528;44.712;2023-02-28T04:49:28;44.97;;;22.05;;
62679;SDS011;68213;40.528;44.712;2023-02-28T04:50:29;45.13;;;22.08;;
62679;SDS011;68213;40.528;44.712;2023-02-28T04:51:31;44.13;;;22.50;;
62679;SDS011;68213;40.528;44.712;2023-02-28T04:52:32;49.13;;;25.10;;
62679;SDS011;68213;40.528;44.712;2023-02-28T04:53:33;47.03;;;23.10;;
62679;SDS011;68213;40.528;44.712;2023-02-28T04:54:34;46.08;;;22.90;;
62679;SDS011;68213;40.528;44.712;2023-02-28T04:55:35;37.22;;;20.13;;
62679;SDS011;68213;40.528;44.712;2023-02-28T04:56:36;37.60;;;20.13;;
62679;SDS011;68213;40.528;44.712;2023-02-28T04:57:36;40.33;;;21.27;;
62679;SDS011;68213;40.528;44.712;2023-02-28T04:58:37;42.35;;;22.10;;
62679;SDS011;68213;40.528;44.712;2023-02-28T04:59:38;43.58;;;21.67;;
62679;SDS011;68213;40.528;44.712;2023-02-28T05:00:38;45.50;;;22.63;;
62679;SDS011;68213;40.528;44.712;2023-02-28T05:01:44;40.08;;;21.45;;
62679;SDS011;68213;40.528;44.712;2023-02-28T05:02:46;48.05;;;23.30;;
62679;SDS011;68213;40.528;44.712;2023-02-28T05:03:47;38.53;;;22.10;;
62679;SDS011;68213;40.528;44.712;2023-02-28T05:04:49;44.75;;;22.38;;
62679;SDS011;68213;40.528;44.712;2023-02-28T05:05:49;43.95;;;22.85;;
62679;SDS011;68213;40.528;44.712;2023-02-28T05:06:50;41.95;;;23.25;;
62679;SDS011;68213;40.528;44.712;2023-02-28T05:07:51;44.42;;;23.40;;
62679;SDS011;68213;40.528;44.712;2023-02-28T05:08:51;48.33;;;23.65;;
62679;SDS011;68213;40.528;44.712;2023-02-28T05:09:52;43.42;;;23.00;;
62679;SDS011;68213;40.528;44.712;2023-02-28T05:10:53;46.70;;;23.25;;
62679;SDS011;68213;40.528;44.712;2023-02-28T05:11:54;44.90;;;23.02;;
62679;SDS011;68213;40.528;44.712;2023-02-28T05:12:55;45.53;;;24.52;;
62679;SDS011;68213;40.528;44.712;2023-02-28T05:13:56;43.53;;;24.55;;
62679;SDS011;68213;40.528;44.712;2023-02-28T05:14:56;49.92;;;23.67;;
62679;SDS011;68213;40.528;44.712;2023-02-28T05:15:57;51.38;;;23.48;;
62679;SDS011;68213;40.528;44.712;2023-02-28T05:16:58;45.30;;;24.70;;
62679;SDS011;68213;40.528;44.712;2023-02-28T05:17:58;42.72;;;23.00;;
62679;SDS011;68213;40.528;44.712;2023-02-28T05:18:59;44.58;;;23.77;;
62679;SDS011;68213;40.528;44.712;2023-02-28T05:20:03;43.05;;;22.77;;
62679;SDS011;68213;40.528;44.712;2023-02-28T05:21:05;48.88;;;23.83;;
62679;SDS011;68213;40.528;44.712;2023-02-28T05:22:10;45.65;;;23.88;;
62679;SDS011;68213;40.528;44.712;2023-02-28T05:23:14;45.63;;;23.65;;
62679;SDS011;68213;40.528;44.712;2023-02-28T05:24:17;43.15;;;23.15;;
62679;SDS011;68213;40.528;44.712;2023-02-28T05:25:23;45.38;;;24.15;;
62679;SDS011;68213;40.528;44.712;2023-02-28T05:26:24;47.63;;;23.80;;
62679;SDS011;68213;40.528;44.712;2023-02-28T05:27:26;41.10;;;22.55;;
62679;SDS011;68213;40.528;44.712;2023-02-28T05:28:28;44.72;;;23.02;;
62679;SDS011;68213;40.528;44.712;2023-02-28T05:29:32;49.10;;;25.75;;
62679;SDS011;68213;40.528;44.712;2023-02-28T05:30:32;39.88;;;22.15;;
62679;SDS011;68213;40.528;44.712;2023-02-28T05:31:33;39.00;;;23.15;;
62679;SDS011;68213;40.528;44.712;2023-02-28T05:32:35;42.95;;;23.00;;
62679;SDS011;68213;40.528;44.712;2023-02-28T05:33:35;49.40;;;23.00;;
62679;SDS011;68213;40.528;44.712;2023-02-28T05:34:37;41.00;;;22.08;;
62679;SDS011;68213;40.528;44.712;2023-02-28T05:35:39;39.25;;;22.98;;
62679;SDS011;68213;40.528;44.712;2023-02-28T05:36:40;43.63;;;23.08;;
62679;SDS011;68213;40.528;44.712;2023-02-28T05:37:41;42.42;;;21.92;;
62679;SDS011;68213;40.528;44.712;2023-02-28T05:38:42;41.45;;;21.90;;
62679;SDS011;68213;40.528;44.712;2023-02-28T05:40:53;44.55;;;22.42;;
62679;SDS011;68213;40.528;44.712;2023-02-28T05:41:54;41.30;;;21.27;;
62679;SDS011;68213;40.528;44.712;2023-02-28T05:42:55;44.35;;;22.05;;
62679;SDS011;68213;40.528;44.712;2023-02-28T05:43:57;41.70;;;22.60;;
62679;SDS011;68213;40.528;44.712;2023-02-28T05:44:57;43.88;;;22.35;;
62679;SDS011;68213;40.528;44.712;2023-02-28T05:45:59;42.20;;;21.15;;
62679;SDS011;68213;40.528;44.712;2023-02-28T05:47:02;43.47;;;21.48;;
62679;SDS011;68213;40.528;44.712;2023-02-28T05:48:02;38.08;;;22.33;;
62679;SDS011;68213;40.528;44.712;2023-02-28T05:49:03;39.63;;;21.50;;
62679;SDS011;68213;40.528;44.712;2023-02-28T05:50:04;45.28;;;26.00;;
62679;SDS011;68213;40.528;44.712;2023-02-28T05:51:06;42.58;;;20.02;;
62679;SDS011;68213;40.528;44.712;2023-02-28T05:52:08;41.47;;;21.73;;
62679;SDS011;68213;40.528;44.712;2023-02-28T05:53:09;39.22;;;21.80;;
62679;SDS011;68213;40.528;44.712;2023-02-28T05:54:09;39.20;;;21.63;;
62679;SDS011;68213;40.528;44.712;2023-02-28T05:55:10;40.08;;;21.65;;
62679;SDS011;68213;40.528;44.712;2023-02-28T05:56:10;38.45;;;21.85;;
62679;SDS011;68213;40.528;44.712;2023-02-28T05:57:11;35.60;;;21.15;;
62679;SDS011;68213;40.528;44.712;2023-02-28T05:58:12;39.80;;;21.85;;
62679;SDS011;68213;40.528;44.712;2023-02-28T05:59:12;37.70;;;21.33;;
62679;SDS011;68213;40.528;44.712;2023-02-28T06:00:13;40.83;;;22.23;;
62679;SDS011;68213;40.528;44.712;2023-02-28T06:01:19;39.35;;;22.05;;
62679;SDS011;68213;40.528;44.712;2023-02-28T06:02:22;37.95;;;21.23;;
62679;SDS011;68213;40.528;44.712;2023-02-28T06:03:24;41.22;;;21.55;;
62679;SDS011;68213;40.528;44.712;2023-02-28T06:04:26;37.88;;;21.95;;
62679;SDS011;68213;40.528;44.712;2023-02-28T06:05:26;39.20;;;22.10;;
62679;SDS011;68213;40.528;44.712;2023-02-28T06:06:28;38.58;;;21.08;;
62679;SDS011;68213;40.528;44.712;2023-02-28T06:07:29;38.42;;;21.25;;
62679;SDS011;68213;40.528;44.712;2023-02-28T06:08:32;42.80;;;22.27;;
62679;SDS011;68213;40.528;44.712;2023-02-28T06:09:33;40.00;;;23.30;;
62679;SDS011;68213;40.528;44.712;2023-02-28T06:10:34;40.10;;;21.38;;
62679;SDS011;68213;40.528;44.712;2023-02-28T06:11:35;38.20;;;21.15;;
62679;SDS011;68213;40.528;44.712;2023-02-28T06:12:36;39.17;;;23.88;;
62679;SDS011;68213;40.528;44.712;2023-02-28T06:13:40;38.50;;;21.33;;
62679;SDS011;68213;40.528;44.712;2023-02-28T06:14:41;33.70;;;20.05;;
62679;SDS011;68213;40.528;44.712;2023-02-28T06:15:41;39.78;;;21.02;;
62679;SDS011;68213;40.528;44.712;2023-02-28T06:16:42;37.03;;;20.40;;
62679;SDS011;68213;40.528;44.712;2023-02-28T06:17:43;38.40;;;20.63;;
62679;SDS011;68213;40.528;44.712;2023-02-28T06:18:44;35.45;;;18.40;;
62679;SDS011;68213;40.528;44.712;2023-02-28T06:19:45;44.95;;;23.08;;
62679;SDS011;68213;40.528;44.712;2023-02-28T06:20:54;33.70;;;20.23;;
62679;SDS011;68213;40.528;44.712;2023-02-28T06:21:55;33.35;;;19.00;;
62679;SDS011;68213;40.528;44.712;2023-02-28T06:22:57;29.52;;;17.60;;
62679;SDS011;68213;40.528;44.712;2023-02-28T06:23:58;25.42;;;15.13;;
62679;SDS011;68213;40.528;44.712;2023-02-28T06:24:59;35.03;;;18.17;;
62679;SDS011;68213;40.528;44.712;2023-02-28T06:25:59;34.03;;;19.80;;
62679;SDS011;68213;40.528;44.712;2023-02-28T06:27:00;34.10;;;17.00;;
62679;SDS011;68213;40.528;44.712;2023-02-28T06:28:05;34.95;;;17.02;;
62679;SDS011;68213;40.528;44.712;2023-02-28T06:29:06;36.78;;;17.60;;
62679;SDS011;68213;40.528;44.712;2023-02-28T06:30:07;28.90;;;17.17;;
62679;SDS011;68213;40.528;44.712;2023-02-28T06:31:10;34.17;;;17.63;;
62679;SDS011;68213;40.528;44.712;2023-02-28T06:32:13;30.85;;;17.60;;
62679;SDS011;68213;40.528;44.712;2023-02-28T06:33:14;29.98;;;16.83;;
62679;SDS011;68213;40.528;44.712;2023-02-28T06:34:15;36.80;;;16.98;;
62679;SDS011;68213;40.528;44.712;2023-02-28T06:35:17;33.17;;;18.83;;
62679;SDS011;68213;40.528;44.712;2023-02-28T06:36:18;28.83;;;16.73;;
62679;SDS011;68213;40.528;44.712;2023-02-28T06:37:18;30.25;;;18.17;;
62679;SDS011;68213;40.528;44.712;2023-02-28T06:38:19;32.55;;;17.83;;
62679;SDS011;68213;40.528;44.712;2023-02-28T06:39:20;32.20;;;18.02;;
62679;SDS011;68213;40.528;44.712;2023-02-28T06:40:20;34.78;;;18.50;;
62679;SDS011;68213;40.528;44.712;2023-02-28T06:41:22;33.47;;;18.20;;
62679;SDS011;68213;40.528;44.712;2023-02-28T06:42:24;36.03;;;18.27;;
62679;SDS011;68213;40.528;44.712;2023-02-28T06:43:29;33.30;;;18.65;;
62679;SDS011;68213;40.528;44.712;2023-02-28T06:44:33;33.28;;;19.30;;
62679;SDS011;68213;40.528;44.712;2023-02-28T06:45:35;36.97;;;21.00;;
62679;SDS011;68213;40.528;44.712;2023-02-28T06:46:35;32.75;;;19.67;;
62679;SDS011;68213;40.528;44.712;2023-02-28T06:47:37;36.78;;;18.98;;